Terminal Aerodrome Forecast
Issued by NWS Raleigh/Durham, NC

Home | Current Version | Previous Version | Text Only | Print | Product List | Glossary On
Versions: 1 2 3 4 5 6 7 8 9 10 11 12 13 14 15 16 17 18 19 20 21 22 23 24 25 26 27
000
FTUS42 KRAH 052334
TAFGSO
TAF
KGSO 052334Z 0600/0624 34009KT P6SM -RA OVC050
      TEMPO 0603/0606 P6SM -RA OVC015
     FM060600 32004KT P6SM OVC050
     FM061500 33008KT P6SM BKN100
     FM061800 32010KT P6SM SCT250 PROB30 0618/0621 P6SM -TSRA
      BKN050CB=

USA.gov is the U.S. government's official web portal to all federal, state and local government web resources and services.